createdAt,value
2022-11-03T00:03:27.729Z,93.73
2022-11-03T00:08:29.533Z,94.15
2022-11-03T00:13:38.709Z,94.44
2022-11-03T00:18:40.659Z,95.20
2022-11-03T00:23:44.007Z,95.24
2022-11-03T00:28:47.703Z,95.26
2022-11-03T00:33:50.438Z,95.05
2022-11-03T00:38:52.990Z,95.31
2022-11-03T00:43:55.289Z,95.56
2022-11-03T00:48:57.119Z,95.38
2022-11-03T00:54:01.104Z,95.47
2022-11-03T00:59:05.192Z,95.59
2022-11-03T01:04:26.868Z,95.63
2022-11-03T01:09:31.642Z,95.66
2022-11-03T01:14:36.459Z,95.72
2022-11-03T01:19:38.340Z,95.78
2022-11-03T01:24:41.744Z,95.82
2022-11-03T01:29:44.056Z,96.11
2022-11-03T01:34:45.981Z,96.34
2022-11-03T01:39:47.786Z,96.51
2022-11-03T01:44:49.774Z,96.43
2022-11-03T01:50:05.980Z,96.72
2022-11-03T01:55:13.572Z,96.82
2022-11-03T02:00:15.952Z,97.03
2022-11-03T02:05:21.772Z,97.07
2022-11-03T02:10:25.270Z,97.34
2022-11-03T02:15:28.956Z,97.15
2022-11-03T02:20:31.997Z,97.34
2022-11-03T02:25:36.532Z,97.53
2022-11-03T02:31:00.021Z,97.56
2022-11-03T02:36:05.897Z,97.93
2022-11-03T02:41:09.231Z,97.85
2022-11-03T02:46:13.433Z,98.12
2022-11-03T02:51:15.227Z,98.03
2022-11-03T02:56:23.217Z,98.16
2022-11-03T03:01:47.555Z,98.26
2022-11-03T03:06:57.777Z,98.31
2022-11-03T03:12:02.470Z,98.75
2022-11-03T03:17:24.414Z,98.65
2022-11-03T03:22:36.764Z,99.15
2022-11-03T03:27:43.442Z,98.87
2022-11-03T03:32:49.134Z,98.85
2022-11-03T03:37:54.943Z,98.72
2022-11-03T03:42:58.255Z,98.86
2022-11-03T03:48:00.764Z,98.84
2022-11-03T03:53:05.308Z,99.21
2022-11-03T03:58:08.476Z,99.42
2022-11-03T04:03:19.917Z,99.31
2022-11-03T04:08:21.879Z,99.65
2022-11-03T04:13:42.453Z,99.57
2022-11-03T04:19:02.963Z,99.84
2022-11-03T04:24:04.970Z,99.68
2022-11-03T04:29:09.660Z,99.83
2022-11-03T04:34:13.063Z,99.95
2022-11-03T04:39:21.210Z,99.88
2022-11-03T04:44:23.083Z,99.79
2022-11-03T04:49:25.333Z,99.80
2022-11-03T04:54:27.274Z,99.98
2022-11-03T04:59:29.452Z,99.93
2022-11-03T05:04:31.193Z,99.98
2022-11-03T05:09:33.000Z,99.97
2022-11-03T05:14:34.823Z,99.98
2022-11-03T05:19:41.264Z,100.00
2022-11-03T05:24:44.117Z,100.00
2022-11-03T05:29:47.270Z,99.99
2022-11-03T05:34:51.424Z,100.00
2022-11-03T05:39:59.587Z,100.00
2022-11-03T05:45:15.884Z,100.00
2022-11-03T05:50:22.176Z,100.00
2022-11-03T05:55:37.254Z,100.00
2022-11-03T06:00:48.160Z,100.00
2022-11-03T06:05:51.926Z,100.00
2022-11-03T06:10:57.081Z,100.00
2022-11-03T06:16:21.155Z,100.00
2022-11-03T06:21:25.585Z,100.00
2022-11-03T06:26:28.850Z,100.00
2022-11-03T06:31:33.129Z,100.00
2022-11-03T06:36:37.371Z,100.00
2022-11-03T06:41:39.961Z,100.00
2022-11-03T06:46:41.829Z,100.00
2022-11-03T06:51:43.644Z,100.00
2022-11-03T06:56:45.467Z,100.00
2022-11-03T07:01:55.403Z,100.00
2022-11-03T07:07:03.091Z,100.00
2022-11-03T07:12:14.998Z,100.00
2022-11-03T07:17:22.126Z,100.00
2022-11-03T07:22:26.115Z,100.00
2022-11-03T07:27:31.245Z,100.00
2022-11-03T07:32:34.730Z,100.00
2022-11-03T07:37:36.851Z,100.00
2022-11-03T07:42:38.751Z,100.00
2022-11-03T07:47:44.017Z,100.00
2022-11-03T07:52:45.798Z,100.00
2022-11-03T07:57:48.301Z,100.00
2022-11-03T08:02:59.200Z,100.00
2022-11-03T08:08:01.063Z,100.00
2022-11-03T08:13:02.961Z,100.00
2022-11-03T08:18:04.882Z,100.00
2022-11-03T08:23:24.612Z,100.00
2022-11-03T08:28:27.451Z,100.00
2022-11-03T08:38:36.479Z,100.00
2022-11-03T08:43:38.282Z,100.00
2022-11-03T08:48:40.280Z,100.00
2022-11-03T08:53:42.999Z,100.00
2022-11-03T08:58:44.944Z,99.89
2022-11-03T09:03:46.919Z,99.19
2022-11-03T09:14:10.803Z,97.99
2022-11-03T09:19:12.662Z,96.76
2022-11-03T09:24:14.469Z,95.87
2022-11-03T09:29:16.277Z,95.36
2022-11-03T09:34:18.112Z,94.59
2022-11-03T09:39:19.980Z,93.41
2022-11-03T09:44:21.838Z,92.33
2022-11-03T09:49:23.896Z,91.40
2022-11-03T09:54:27.195Z,89.70
2022-11-03T09:59:30.522Z,88.65
2022-11-03T10:04:32.491Z,87.82
2022-11-03T10:09:34.622Z,87.29
2022-11-03T10:14:37.067Z,86.36
2022-11-03T10:19:38.885Z,85.85
2022-11-03T10:24:40.702Z,84.75
2022-11-03T10:29:45.391Z,84.16
2022-11-03T10:34:52.615Z,82.51
2022-11-03T10:39:57.255Z,82.43
2022-11-03T10:45:19.987Z,78.38
2022-11-03T10:50:26.910Z,79.40
2022-11-03T10:55:30.478Z,79.32
2022-11-03T11:00:33.369Z,79.02
2022-11-03T11:05:35.317Z,77.89
2022-11-03T11:10:37.187Z,76.77
2022-11-03T11:15:50.968Z,77.16
2022-11-03T11:20:52.748Z,76.37
2022-11-03T11:26:09.947Z,76.21
2022-11-03T11:31:27.133Z,75.26
2022-11-03T11:36:29.113Z,74.64
2022-11-03T11:42:08.695Z,74.29
2022-11-03T11:47:27.940Z,73.49
2022-11-03T11:52:30.297Z,72.62
2022-11-03T11:57:35.346Z,72.09
2022-11-03T12:02:37.183Z,72.21
2022-11-03T12:07:38.956Z,71.95
2022-11-03T12:12:40.723Z,70.77
2022-11-03T12:17:42.512Z,71.40
2022-11-03T12:22:44.366Z,71.31
2022-11-03T12:27:46.349Z,71.30
2022-11-03T12:32:48.355Z,71.25
2022-11-03T12:37:50.139Z,70.50
2022-11-03T12:42:52.056Z,70.00
2022-11-03T12:47:53.829Z,69.93
2022-11-03T12:52:55.627Z,69.65
2022-11-03T12:57:57.494Z,69.34
2022-11-03T13:02:59.313Z,68.94
2022-11-03T13:08:01.104Z,68.55
2022-11-03T13:13:02.923Z,68.65
2022-11-03T13:18:14.069Z,68.49
2022-11-03T13:23:18.856Z,68.48
2022-11-03T13:28:24.148Z,68.67
2022-11-03T13:33:26.045Z,68.86
2022-11-03T13:38:27.832Z,69.03
2022-11-03T13:43:29.612Z,69.15
2022-11-03T14:04:44.603Z,70.44
2022-11-03T14:09:47.153Z,70.37
2022-11-03T14:14:48.949Z,70.38
2022-11-03T14:19:52.839Z,70.79
2022-11-03T14:24:57.127Z,70.94
2022-11-03T14:29:59.006Z,71.11
2022-11-03T14:35:00.911Z,71.22
2022-11-03T14:40:03.159Z,71.42
2022-11-03T14:45:05.412Z,71.35
2022-11-03T14:50:07.747Z,71.27
2022-11-03T14:55:09.664Z,71.21
2022-11-03T15:00:11.840Z,71.37
2022-11-03T15:05:33.631Z,71.57
2022-11-03T15:10:35.427Z,71.78
2022-11-03T15:15:37.334Z,72.14
2022-11-03T15:20:39.177Z,72.60
2022-11-03T15:25:41.047Z,73.00
2022-11-03T15:30:42.926Z,73.42
2022-11-03T15:35:45.344Z,73.72
2022-11-03T15:40:47.177Z,73.79
2022-11-03T15:45:48.932Z,74.23
2022-11-03T15:50:50.946Z,74.53
2022-11-03T15:55:52.843Z,74.69
2022-11-03T16:00:54.723Z,74.68
2022-11-03T16:05:56.716Z,74.73
2022-11-03T16:10:58.606Z,74.99
2022-11-03T16:16:00.502Z,75.17
2022-11-03T16:21:02.489Z,75.37
2022-11-03T16:26:05.746Z,75.55
2022-11-03T16:31:07.549Z,75.64
2022-11-03T16:36:09.460Z,76.05
2022-11-03T16:41:11.822Z,76.20
2022-11-03T16:46:13.675Z,76.47
2022-11-03T16:51:15.509Z,76.68
2022-11-03T16:56:17.350Z,77.07
2022-11-03T17:01:19.303Z,77.46
2022-11-03T17:06:21.367Z,78.04
2022-11-03T17:11:49.388Z,78.21
2022-11-03T17:16:51.313Z,78.62
2022-11-03T17:21:53.770Z,78.51
2022-11-03T17:27:07.568Z,78.68
2022-11-03T17:32:22.159Z,78.59
2022-11-03T17:37:25.200Z,78.70
2022-11-03T17:42:28.617Z,78.45
2022-11-03T17:47:31.853Z,78.47
2022-11-03T17:52:34.116Z,78.38
2022-11-03T17:57:36.574Z,78.45
2022-11-03T18:02:40.600Z,78.23
2022-11-03T18:07:42.943Z,78.40
2022-11-03T18:13:07.509Z,78.46
2022-11-03T18:18:14.664Z,78.33
2022-11-03T18:23:30.515Z,78.32
2022-11-03T18:28:32.345Z,78.36
2022-11-03T18:33:36.139Z,78.11
2022-11-03T18:38:41.466Z,78.22
2022-11-03T18:43:43.269Z,78.00
2022-11-03T18:48:45.099Z,78.15
2022-11-03T18:53:46.975Z,78.10
2022-11-03T18:58:52.639Z,78.08
2022-11-03T19:03:56.395Z,78.26
2022-11-03T19:08:59.807Z,78.20
2022-11-03T19:14:01.827Z,78.33
2022-11-03T19:19:04.164Z,78.41
2022-11-03T19:24:06.268Z,78.43
2022-11-03T19:29:14.750Z,78.71
2022-11-03T19:34:20.047Z,78.77
2022-11-03T19:39:36.083Z,78.89
2022-11-03T19:44:37.960Z,79.00
2022-11-03T19:49:39.810Z,79.08
2022-11-03T19:54:48.756Z,79.07
2022-11-03T19:59:50.539Z,79.10
2022-11-03T20:04:52.326Z,79.22
2022-11-03T20:09:54.137Z,79.47
2022-11-03T20:14:55.975Z,79.69
2022-11-03T20:19:57.993Z,79.84
2022-11-03T20:25:03.323Z,80.25
2022-11-03T20:30:05.942Z,80.52
2022-11-03T20:35:13.448Z,80.76
2022-11-03T20:40:19.466Z,81.03
2022-11-03T20:45:23.314Z,81.05
2022-11-03T20:50:25.872Z,81.43
2022-11-03T20:55:27.662Z,81.72
2022-11-03T21:00:31.735Z,81.91
2022-11-03T21:05:33.607Z,81.96
2022-11-03T21:10:36.035Z,81.98
2022-11-03T21:16:23.004Z,82.04
2022-11-03T21:21:21.495Z,82.01
2022-11-03T21:26:23.386Z,82.12
2022-11-03T21:31:25.234Z,82.26
2022-11-03T21:36:27.022Z,82.29
2022-11-03T21:41:47.758Z,82.58
2022-11-03T21:46:49.536Z,82.59
2022-11-03T21:51:51.397Z,82.81
2022-11-03T21:56:53.262Z,82.96
2022-11-03T22:01:55.403Z,83.04
2022-11-03T22:06:59.102Z,82.90
2022-11-03T22:12:05.673Z,83.06
2022-11-03T22:17:07.540Z,83.06
2022-11-03T22:22:33.707Z,83.04
2022-11-03T22:27:35.543Z,83.10
2022-11-03T22:32:39.917Z,82.92
2022-11-03T22:37:42.071Z,82.50
2022-11-03T22:43:03.590Z,82.20
2022-11-03T22:48:09.475Z,81.57
2022-11-03T22:53:30.498Z,81.51
2022-11-03T22:58:33.374Z,81.30
2022-11-03T23:03:37.270Z,81.45
2022-11-03T23:08:41.163Z,81.48
2022-11-03T23:13:44.879Z,81.54
2022-11-03T23:19:06.472Z,81.68
2022-11-03T23:24:27.165Z,82.11
2022-11-03T23:29:29.462Z,82.55
2022-11-03T23:34:31.283Z,82.84
2022-11-03T23:39:33.081Z,83.07
2022-11-03T23:44:53.636Z,83.33
2022-11-03T23:49:55.428Z,83.51
2022-11-03T23:54:57.312Z,83.77
2022-11-03T23:59:59.157Z,83.86
